Time;durP1;ratioP1;P1;durP2;ratioP2;P2;SDS_P1;SDS_P2;PMS_P1;PMS_P2;Temp;Humidity;BMP_temperature;BMP_pressure;BME280_temperature;BME280_humidity;BME280_pressure;Samples;Min_cycle;Max_cycle;Signal;HPM_P1;HPM_P2
2021/04/17 00:00:45;;;;;;;;;;;6.50;59.90;;;;;;4939658;28;20009;-87
2021/04/17 00:03:10;;;;;;;;;;;6.50;59.90;;;;;;4934262;29;19940;-87
2021/04/17 00:05:35;;;;;;;;;;;6.40;60.20;;;;;;4934304;29;19921;-88
2021/04/17 00:08:01;;;;;;;;;;;6.40;60.30;;;;;;4937702;28;20354;-87
2021/04/17 00:10:26;;;;;;;;;;;6.40;60.70;;;;;;4941610;29;20255;-87
2021/04/17 00:12:52;;;;;;;;;;;6.40;60.80;;;;;;4942887;29;19915;-89
2021/04/17 00:15:17;;;;;;;;;;;6.30;61.00;;;;;;4947902;29;20318;-89
2021/04/17 00:17:43;;;;;;;;;;;6.30;60.90;;;;;;4942144;28;19919;-88
2021/04/17 00:20:08;;;;;;;;;;;6.30;61.00;;;;;;4933349;29;19911;-88
2021/04/17 00:22:34;;;;;;;;;;;6.30;61.10;;;;;;4931659;29;19954;-88
2021/04/17 00:24:59;;;;;;;;;;;6.20;61.10;;;;;;4931982;29;19919;-88
2021/04/17 00:27:25;;;;;;;;;;;6.20;61.30;;;;;;4933906;29;20439;-87
2021/04/17 00:29:50;;;;;;;;;;;6.20;61.30;;;;;;4934694;29;19911;-87
2021/04/17 00:32:16;;;;;;;;;;;6.20;61.40;;;;;;4933946;29;20429;-88
2021/04/17 00:34:41;;;;;;;;;;;6.20;61.40;;;;;;4935717;29;19910;-88
2021/04/17 00:37:07;;;;;;;;;;;6.20;61.50;;;;;;4932856;29;19911;-87
2021/04/17 00:39:32;;;;;;;;;;;6.20;61.40;;;;;;4934375;29;19958;-88
2021/04/17 00:41:58;;;;;;;;;;;6.20;61.50;;;;;;4934171;29;20296;-88
2021/04/17 00:44:23;;;;;;;;;;;6.10;61.50;;;;;;4929757;29;19922;-88
2021/04/17 00:46:49;;;;;;;;;;;6.10;61.80;;;;;;4926770;29;19926;-88
2021/04/17 00:49:15;;;;;;;;;;;6.10;61.90;;;;;;4942362;28;20284;-89
2021/04/17 00:51:40;;;;;;;;;;;6.00;61.90;;;;;;4941157;29;19911;-89
2021/04/17 00:54:06;;;;;;;;;;;6.00;62.00;;;;;;4934600;29;20009;-87
2021/04/17 00:56:32;;;;;;;;;;;6.00;62.00;;;;;;4934652;29;19914;-89
2021/04/17 00:58:57;;;;;;;;;;;6.00;62.50;;;;;;4942444;29;20398;-89
2021/04/17 01:01:23;;;;;;;;;;;6.00;62.10;;;;;;4949834;29;20349;-89
2021/04/17 01:03:48;;;;;;;;;;;6.00;62.10;;;;;;4943081;29;20453;-90
2021/04/17 01:06:17;;;;;;;;;;;5.90;62.00;;;;;;4939733;29;19988;-86
2021/04/17 01:08:48;;;;;;;;;;;5.90;62.30;;;;;;4938225;29;20289;-86
2021/04/17 01:11:18;;;;;;;;;;;5.90;62.50;;;;;;4932701;29;19910;-86
2021/04/17 01:13:43;;;;;;;;;;;5.90;62.40;;;;;;4933579;29;19957;-88
2021/04/17 01:16:09;;;;;;;;;;;5.90;62.40;;;;;;4934276;29;19911;-89
2021/04/17 01:18:35;;;;;;;;;;;5.80;62.50;;;;;;4934606;29;20278;-89
2021/04/17 01:21:01;;;;;;;;;;;5.80;62.40;;;;;;4932239;29;20001;-88
2021/04/17 01:23:46;;;;;;;;;;;5.80;62.50;;;;;;4953480;28;19913;-87
2021/04/17 01:26:12;;;;;;;;;;;5.80;62.60;;;;;;4933446;29;19911;-88
2021/04/17 01:28:48;;;;;;;;;;;5.80;63.00;;;;;;4932048;29;19910;-88
2021/04/17 01:31:15;;;;;;;;;;;5.70;63.10;;;;;;4940142;28;19961;-87
2021/04/17 01:33:43;;;;;;;;;;;5.70;63.30;;;;;;4935065;29;20429;-88
2021/04/17 01:36:09;;;;;;;;;;;5.70;63.60;;;;;;4933531;28;19917;-87
2021/04/17 01:38:43;;;;;;;;;;;5.60;64.30;;;;;;4931373;29;19911;-86
2021/04/17 01:41:17;;;;;;;;;;;5.60;63.70;;;;;;4931293;29;19910;-87
2021/04/17 01:43:43;;;;;;;;;;;5.60;63.90;;;;;;4931979;29;19923;-87
2021/04/17 01:46:16;;;;;;;;;;;5.50;63.70;;;;;;4931661;29;19918;-86
2021/04/17 01:48:42;;;;;;;;;;;5.50;63.90;;;;;;4930018;29;19922;-87
2021/04/17 01:51:08;;;;;;;;;;;5.50;64.00;;;;;;4931592;29;19914;-85
2021/04/17 01:53:35;;;;;;;;;;;5.50;64.00;;;;;;4934906;29;20424;-87
2021/04/17 01:56:01;;;;;;;;;;;5.50;64.70;;;;;;4939491;29;19946;-87
2021/04/17 01:58:28;;;;;;;;;;;5.50;64.30;;;;;;4934737;29;20028;-88
2021/04/17 02:00:55;;;;;;;;;;;5.40;64.30;;;;;;4940347;29;20394;-86
2021/04/17 02:03:21;;;;;;;;;;;5.40;64.40;;;;;;4951069;28;20277;-86
2021/04/17 02:05:50;;;;;;;;;;;5.40;64.40;;;;;;4931673;29;19993;-87
2021/04/17 02:08:16;;;;;;;;;;;5.30;64.50;;;;;;4933184;29;19914;-87
2021/04/17 02:10:41;;;;;;;;;;;5.30;64.70;;;;;;4934327;28;19941;-86
2021/04/17 02:13:07;;;;;;;;;;;5.30;64.90;;;;;;4931758;29;19910;-86
2021/04/17 02:15:34;;;;;;;;;;;5.30;65.20;;;;;;4938827;28;19953;-86
2021/04/17 02:18:02;;;;;;;;;;;5.30;65.40;;;;;;4932048;28;19939;-86
2021/04/17 02:20:33;;;;;;;;;;;5.30;65.30;;;;;;4930336;29;20358;-86
2021/04/17 02:22:58;;;;;;;;;;;5.20;65.30;;;;;;4932062;29;20353;-86
2021/04/17 02:25:24;;;;;;;;;;;5.30;65.60;;;;;;4929902;29;19970;-88
2021/04/17 02:27:50;;;;;;;;;;;5.20;65.60;;;;;;4925868;29;20380;-87
2021/04/17 02:30:16;;;;;;;;;;;5.20;65.90;;;;;;4934159;29;20022;-86
2021/04/17 02:32:41;;;;;;;;;;;5.20;65.90;;;;;;4934761;28;20305;-85
2021/04/17 02:35:07;;;;;;;;;;;5.20;66.00;;;;;;4934940;29;19954;-87
2021/04/17 02:37:32;;;;;;;;;;;5.20;66.00;;;;;;4934660;29;20320;-87
2021/04/17 02:39:58;;;;;;;;;;;5.10;65.90;;;;;;4934631;29;19906;-85
2021/04/17 02:42:23;;;;;;;;;;;5.10;66.00;;;;;;4934581;29;19911;-87
2021/04/17 02:44:49;;;;;;;;;;;5.10;66.10;;;;;;4933941;29;19915;-86
2021/04/17 02:47:14;;;;;;;;;;;5.10;66.30;;;;;;4938877;28;19965;-86
2021/04/17 02:49:40;;;;;;;;;;;5.10;66.20;;;;;;4932806;29;19918;-87
2021/04/17 02:52:06;;;;;;;;;;;5.10;67.00;;;;;;4942556;29;19911;-85
2021/04/17 02:54:31;;;;;;;;;;;5.10;66.30;;;;;;4938933;29;19913;-86
2021/04/17 02:56:57;;;;;;;;;;;5.10;66.50;;;;;;4939457;28;19910;-87
2021/04/17 02:59:22;;;;;;;;;;;5.00;66.50;;;;;;4940130;28;19918;-86
2021/04/17 03:01:48;;;;;;;;;;;5.00;66.50;;;;;;4937457;29;20063;-86
2021/04/17 03:04:13;;;;;;;;;;;5.00;66.60;;;;;;4934421;29;20069;-86
2021/04/17 03:06:39;;;;;;;;;;;5.00;66.70;;;;;;4921230;28;621884;-86
2021/04/17 03:09:04;;;;;;;;;;;5.00;66.70;;;;;;4942737;29;19910;-87
2021/04/17 03:11:30;;;;;;;;;;;5.00;66.80;;;;;;4949159;28;19911;-87
2021/04/17 03:13:56;;;;;;;;;;;4.90;66.90;;;;;;4933351;29;19911;-87
2021/04/17 03:16:21;;;;;;;;;;;4.90;66.90;;;;;;4936767;29;20002;-87
2021/04/17 03:18:47;;;;;;;;;;;4.90;67.10;;;;;;4935217;29;20009;-85
2021/04/17 03:21:12;;;;;;;;;;;4.90;67.20;;;;;;4935512;29;19914;-88
2021/04/17 03:23:38;;;;;;;;;;;4.90;67.40;;;;;;4935734;29;19911;-87
2021/04/17 03:26:03;;;;;;;;;;;4.80;67.70;;;;;;4936925;29;19926;-87
2021/04/17 03:28:29;;;;;;;;;;;4.80;67.90;;;;;;4935493;29;19981;-86
2021/04/17 03:30:54;;;;;;;;;;;4.80;67.90;;;;;;4932543;29;20258;-86
2021/04/17 03:33:20;;;;;;;;;;;4.80;68.00;;;;;;4932927;28;19943;-85
2021/04/17 03:35:45;;;;;;;;;;;4.80;68.10;;;;;;4941317;29;19917;-87
2021/04/17 03:38:11;;;;;;;;;;;4.80;68.10;;;;;;4937304;29;19979;-86
2021/04/17 03:40:36;;;;;;;;;;;4.80;68.40;;;;;;4940724;29;20255;-86
2021/04/17 03:43:02;;;;;;;;;;;4.80;68.70;;;;;;4933220;29;19914;-86
2021/04/17 03:45:29;;;;;;;;;;;4.80;68.90;;;;;;4931890;29;20510;-86
2021/04/17 03:47:54;;;;;;;;;;;4.70;68.90;;;;;;4934857;29;19914;-87
2021/04/17 03:50:20;;;;;;;;;;;4.70;69.20;;;;;;4932176;29;19973;-87
2021/04/17 03:52:46;;;;;;;;;;;4.70;69.30;;;;;;4935691;29;19911;-88
2021/04/17 03:55:12;;;;;;;;;;;4.80;69.20;;;;;;4932470;29;20009;-87
2021/04/17 03:57:38;;;;;;;;;;;4.80;69.30;;;;;;4936978;29;19911;-88
2021/04/17 04:00:05;;;;;;;;;;;4.80;69.50;;;;;;4939765;29;20430;-87
2021/04/17 04:02:30;;;;;;;;;;;4.80;69.60;;;;;;4933997;29;19933;-87
2021/04/17 04:04:56;;;;;;;;;;;4.80;69.50;;;;;;4935602;28;20545;-87
2021/04/17 04:07:21;;;;;;;;;;;4.80;69.60;;;;;;4937139;29;19923;-88
2021/04/17 04:09:47;;;;;;;;;;;4.80;69.70;;;;;;4934514;29;19915;-88
2021/04/17 04:12:12;;;;;;;;;;;4.80;69.60;;;;;;4939784;28;20392;-87
2021/04/17 04:14:38;;;;;;;;;;;4.80;69.60;;;;;;4940405;29;19917;-88
2021/04/17 04:17:03;;;;;;;;;;;4.80;69.30;;;;;;4943288;29;19917;-89
2021/04/17 04:19:29;;;;;;;;;;;4.80;69.30;;;;;;4933984;29;20002;-88
2021/04/17 04:21:55;;;;;;;;;;;4.80;69.20;;;;;;4938312;29;19915;-89
2021/04/17 04:24:20;;;;;;;;;;;4.80;69.10;;;;;;4938230;29;19922;-91
2021/04/17 04:26:46;;;;;;;;;;;4.80;69.20;;;;;;4948144;28;20393;-87
2021/04/17 04:29:11;;;;;;;;;;;4.80;69.50;;;;;;4934852;29;19930;-87
2021/04/17 04:31:36;;;;;;;;;;;4.80;69.60;;;;;;4936464;29;19914;-88
2021/04/17 04:34:02;;;;;;;;;;;4.70;69.60;;;;;;4933804;29;20006;-87
2021/04/17 04:36:28;;;;;;;;;;;4.70;69.60;;;;;;4928185;29;19930;-88
2021/04/17 04:38:54;;;;;;;;;;;4.70;69.60;;;;;;4935681;29;19987;-88
2021/04/17 04:41:19;;;;;;;;;;;4.70;70.00;;;;;;4932756;29;19934;-89
2021/04/17 04:43:45;;;;;;;;;;;4.70;70.10;;;;;;4926041;29;19914;-88
2021/04/17 04:46:10;;;;;;;;;;;4.70;70.20;;;;;;4934701;29;20434;-89
2021/04/17 04:48:36;;;;;;;;;;;4.70;70.30;;;;;;4931537;28;20002;-87
2021/04/17 04:51:01;;;;;;;;;;;4.70;70.20;;;;;;4934180;29;19911;-86
2021/04/17 04:53:27;;;;;;;;;;;4.70;70.20;;;;;;4932431;29;19977;-87
2021/04/17 04:55:52;;;;;;;;;;;4.70;70.20;;;;;;4931293;29;19985;-87
2021/04/17 04:58:18;;;;;;;;;;;4.70;70.40;;;;;;4937033;29;19921;-88
2021/04/17 05:00:43;;;;;;;;;;;4.80;70.30;;;;;;4938786;29;20376;-88
2021/04/17 05:03:09;;;;;;;;;;;4.80;70.40;;;;;;4940826;29;19922;-88
2021/04/17 05:05:34;;;;;;;;;;;4.80;70.60;;;;;;4937030;29;19918;-87
2021/04/17 05:08:00;;;;;;;;;;;4.80;70.60;;;;;;4933278;29;19914;-87
2021/04/17 05:10:25;;;;;;;;;;;4.90;70.70;;;;;;4933508;29;20006;-86
2021/04/17 05:12:51;;;;;;;;;;;4.90;70.70;;;;;;4940652;29;19911;-88
2021/04/17 05:15:16;;;;;;;;;;;4.90;70.80;;;;;;4933774;29;19964;-87
2021/04/17 05:17:42;;;;;;;;;;;4.90;70.80;;;;;;4935769;29;19914;-87
2021/04/17 05:20:08;;;;;;;;;;;5.00;70.80;;;;;;4933691;29;19917;-88
2021/04/17 05:22:33;;;;;;;;;;;5.00;70.80;;;;;;4935686;29;20378;-87
2021/04/17 05:24:59;;;;;;;;;;;5.00;70.80;;;;;;4938813;29;19918;-87
2021/04/17 05:27:24;;;;;;;;;;;5.10;70.90;;;;;;4932840;29;19917;-87
2021/04/17 05:29:49;;;;;;;;;;;5.20;71.00;;;;;;4932343;29;19911;-87
2021/04/17 05:32:15;;;;;;;;;;;6.00;71.00;;;;;;4932937;29;19976;-86
2021/04/17 05:34:40;;;;;;;;;;;6.90;69.10;;;;;;4939253;29;19911;-87
2021/04/17 05:37:06;;;;;;;;;;;7.80;66.70;;;;;;4930608;29;20470;-86
2021/04/17 05:39:31;;;;;;;;;;;8.50;64.80;;;;;;4933682;29;19958;-86
2021/04/17 05:41:57;;;;;;;;;;;9.30;62.90;;;;;;4933575;29;19911;-87
2021/04/17 05:44:22;;;;;;;;;;;9.90;61.10;;;;;;4940585;29;19934;-89
2021/04/17 05:46:48;;;;;;;;;;;10.50;59.60;;;;;;4934026;29;20318;-88
2021/04/17 05:49:13;;;;;;;;;;;10.80;58.40;;;;;;4942677;29;19918;-87
2021/04/17 05:51:40;;;;;;;;;;;10.90;57.90;;;;;;4932007;29;19969;-86
2021/04/17 05:54:06;;;;;;;;;;;11.20;57.40;;;;;;4932240;29;19974;-87
2021/04/17 05:56:31;;;;;;;;;;;11.60;56.60;;;;;;4932549;29;19915;-87
2021/04/17 05:58:57;;;;;;;;;;;12.00;55.30;;;;;;4932253;29;19911;-87
2021/04/17 06:01:23;;;;;;;;;;;12.40;54.50;;;;;;4932736;29;20305;-86
2021/04/17 06:03:48;;;;;;;;;;;13.00;53.70;;;;;;4932167;29;20717;-87
2021/04/17 06:06:14;;;;;;;;;;;13.40;52.60;;;;;;4932540;29;20377;-88
2021/04/17 06:08:39;;;;;;;;;;;13.90;51.40;;;;;;4940515;29;19921;-87
2021/04/17 06:11:05;;;;;;;;;;;14.30;50.70;;;;;;4936116;29;19918;-87
2021/04/17 06:13:34;;;;;;;;;;;14.70;50.10;;;;;;4930771;29;20537;-85
2021/04/17 06:16:01;;;;;;;;;;;15.10;49.10;;;;;;4932244;29;20014;-84
2021/04/17 06:18:26;;;;;;;;;;;15.30;48.20;;;;;;4931418;29;19976;-85
2021/04/17 06:20:52;;;;;;;;;;;15.60;47.70;;;;;;4929185;29;19954;-84
2021/04/17 06:23:18;;;;;;;;;;;16.00;46.90;;;;;;4932052;29;19910;-85
2021/04/17 06:25:43;;;;;;;;;;;16.10;46.30;;;;;;4926548;29;19922;-86
2021/04/17 06:28:10;;;;;;;;;;;16.30;45.80;;;;;;4933320;29;19937;-86
2021/04/17 06:30:36;;;;;;;;;;;16.60;45.50;;;;;;4940053;28;20053;-85
2021/04/17 06:33:02;;;;;;;;;;;16.70;45.00;;;;;;4933553;29;19915;-85
2021/04/17 06:35:28;;;;;;;;;;;17.00;44.60;;;;;;4930858;29;19921;-86
2021/04/17 06:37:53;;;;;;;;;;;17.30;44.10;;;;;;4932916;29;19914;-85
2021/04/17 06:40:19;;;;;;;;;;;17.50;43.20;;;;;;4939324;29;20267;-86
2021/04/17 06:42:45;;;;;;;;;;;17.50;42.90;;;;;;4931098;29;20936;-86
2021/04/17 06:45:11;;;;;;;;;;;17.40;42.60;;;;;;4934239;29;20440;-86
2021/04/17 06:47:38;;;;;;;;;;;17.30;42.30;;;;;;4935102;28;19962;-86
2021/04/17 06:50:03;;;;;;;;;;;17.40;42.30;;;;;;4935825;29;19918;-87
2021/04/17 06:52:29;;;;;;;;;;;17.80;42.00;;;;;;4941303;28;19911;-84
2021/04/17 06:54:55;;;;;;;;;;;17.90;41.60;;;;;;4940823;28;19911;-88
2021/04/17 06:57:21;;;;;;;;;;;18.20;41.60;;;;;;4931958;29;19962;-88
2021/04/17 06:59:47;;;;;;;;;;;18.50;40.90;;;;;;4931381;29;20329;-87
2021/04/17 07:02:15;;;;;;;;;;;18.40;40.20;;;;;;4931919;29;19925;-88
2021/04/17 07:04:41;;;;;;;;;;;18.60;40.10;;;;;;4929553;29;20046;-86
2021/04/17 07:07:07;;;;;;;;;;;18.60;39.60;;;;;;4932345;29;20009;-88
2021/04/17 07:09:32;;;;;;;;;;;18.40;39.20;;;;;;4938392;28;19921;-86
2021/04/17 07:11:58;;;;;;;;;;;18.80;39.40;;;;;;4938693;29;20412;-88
2021/04/17 07:14:23;;;;;;;;;;;19.00;38.90;;;;;;4936904;28;20375;-88
2021/04/17 07:17:02;;;;;;;;;;;19.10;38.60;;;;;;4930041;29;19911;-88
2021/04/17 07:19:42;;;;;;;;;;;19.60;38.10;;;;;;4940694;29;20396;-89
2021/04/17 07:22:17;;;;;;;;;;;20.10;37.60;;;;;;4940909;28;20001;-88
2021/04/17 07:24:43;;;;;;;;;;;20.10;36.70;;;;;;4943492;28;20061;-89
2021/04/17 07:27:09;;;;;;;;;;;19.90;35.90;;;;;;4940884;29;20009;-89
2021/04/17 07:29:44;;;;;;;;;;;20.00;36.40;;;;;;4942971;29;19907;-89
2021/04/17 07:32:18;;;;;;;;;;;20.00;35.60;;;;;;4939506;28;19946;-88
2021/04/17 07:35:02;;;;;;;;;;;19.80;35.80;;;;;;4938826;29;19942;-89
2021/04/17 07:37:28;;;;;;;;;;;20.10;35.90;;;;;;4953756;28;19919;-88
2021/04/17 07:39:53;;;;;;;;;;;20.40;35.20;;;;;;4942285;29;19921;-88
2021/04/17 07:42:19;;;;;;;;;;;20.50;34.70;;;;;;4944672;29;19918;-89
2021/04/17 07:44:47;;;;;;;;;;;20.70;34.60;;;;;;4936540;29;20025;-87
2021/04/17 07:47:29;;;;;;;;;;;21.00;34.30;;;;;;4956694;28;19962;-88
2021/04/17 07:50:07;;;;;;;;;;;21.30;34.10;;;;;;4943151;28;19949;-91
2021/04/17 07:52:33;;;;;;;;;;;21.60;33.60;;;;;;4944446;28;19914;-90
2021/04/17 07:54:58;;;;;;;;;;;21.60;33.20;;;;;;4945428;28;19933;-86
2021/04/17 07:57:30;;;;;;;;;;;21.40;33.00;;;;;;4938563;29;19962;-90
2021/04/17 07:59:56;;;;;;;;;;;21.50;33.00;;;;;;4943743;28;20721;-86
2021/04/17 08:02:22;;;;;;;;;;;21.50;32.80;;;;;;4941216;29;19918;-87
2021/04/17 08:04:48;;;;;;;;;;;21.70;32.80;;;;;;4943310;29;19962;-86
2021/04/17 08:07:13;;;;;;;;;;;21.80;32.70;;;;;;4942236;29;20432;-87
2021/04/17 08:09:41;;;;;;;;;;;21.90;32.30;;;;;;4944211;28;19966;-87
2021/04/17 08:12:07;;;;;;;;;;;21.60;31.90;;;;;;4940412;29;19914;-88
2021/04/17 08:14:34;;;;;;;;;;;21.20;31.30;;;;;;4944443;28;20344;-86
2021/04/17 08:16:59;;;;;;;;;;;21.10;31.70;;;;;;4941483;29;19957;-87
2021/04/17 08:19:25;;;;;;;;;;;21.00;31.70;;;;;;4942429;29;19942;-87
2021/04/17 08:21:51;;;;;;;;;;;20.70;31.90;;;;;;4941828;28;19927;-87
2021/04/17 08:24:23;;;;;;;;;;;20.70;32.10;;;;;;4945573;28;19921;-88
2021/04/17 08:26:50;;;;;;;;;;;20.50;32.30;;;;;;4945454;29;19906;-88
2021/04/17 08:29:36;;;;;;;;;;;19.40;32.10;;;;;;4944317;29;19914;-90
2021/04/17 08:32:01;;;;;;;;;;;19.70;33.30;;;;;;4940258;29;19911;-89
2021/04/17 08:34:27;;;;;;;;;;;19.70;33.50;;;;;;4942801;28;19957;-89
2021/04/17 08:37:02;;;;;;;;;;;19.40;33.80;;;;;;4942704;28;19914;-90
2021/04/17 08:39:34;;;;;;;;;;;19.00;34.10;;;;;;4938658;29;19949;-90
2021/04/17 08:42:09;;;;;;;;;;;18.80;35.00;;;;;;4940929;28;19973;-89
2021/04/17 08:44:40;;;;;;;;;;;18.40;35.60;;;;;;4934887;29;20366;-88
2021/04/17 08:47:08;;;;;;;;;;;17.70;36.40;;;;;;4940949;29;19911;-88
2021/04/17 08:49:39;;;;;;;;;;;17.00;36.80;;;;;;4942252;28;19915;-90
2021/04/17 08:52:10;;;;;;;;;;;16.50;37.60;;;;;;4940652;29;20313;-89
2021/04/17 08:54:37;;;;;;;;;;;16.00;38.40;;;;;;4943265;28;19943;-89
2021/04/17 08:57:10;;;;;;;;;;;15.40;38.80;;;;;;4941601;28;20001;-89
2021/04/17 08:59:36;;;;;;;;;;;14.90;39.10;;;;;;4940301;29;19977;-88
2021/04/17 09:02:06;;;;;;;;;;;14.50;39.30;;;;;;4945325;29;19965;-90
2021/04/17 09:04:35;;;;;;;;;;;14.20;39.90;;;;;;4940550;28;20381;-89
2021/04/17 09:07:01;;;;;;;;;;;14.10;40.20;;;;;;4940833;29;19937;-90
2021/04/17 09:09:28;;;;;;;;;;;13.90;39.80;;;;;;4941474;29;19919;-91
2021/04/17 09:11:54;;;;;;;;;;;13.70;39.70;;;;;;4940279;29;20354;-90
2021/04/17 09:14:30;;;;;;;;;;;13.70;39.90;;;;;;4960741;28;19910;-90
2021/04/17 09:16:57;;;;;;;;;;;13.70;40.50;;;;;;4941914;29;19933;-91
2021/04/17 09:19:45;;;;;;;;;;;13.70;40.40;;;;;;4942899;29;20017;-90
2021/04/17 09:22:34;;;;;;;;;;;13.70;40.20;;;;;;4935321;29;19997;-90
2021/04/17 09:25:11;;;;;;;;;;;13.50;39.20;;;;;;4959486;28;19923;-93
2021/04/17 09:27:44;;;;;;;;;;;13.50;39.60;;;;;;4941032;29;19960;-93
2021/04/17 09:30:17;;;;;;;;;;;13.50;39.40;;;;;;4942950;29;19997;-93
2021/04/17 09:32:54;;;;;;;;;;;13.50;39.20;;;;;;4937738;29;20394;-95
2021/04/17 09:35:19;;;;;;;;;;;13.50;39.20;;;;;;4936895;28;19910;-90
2021/04/17 09:37:46;;;;;;;;;;;13.60;38.60;;;;;;4931789;29;19914;-90
2021/04/17 09:40:12;;;;;;;;;;;13.60;39.20;;;;;;4942063;28;20371;-90
2021/04/17 09:42:38;;;;;;;;;;;13.60;38.70;;;;;;4930740;29;19993;-92
2021/04/17 09:45:09;;;;;;;;;;;13.60;38.20;;;;;;4937005;29;19919;-92
2021/04/17 09:47:35;;;;;;;;;;;13.70;38.50;;;;;;4948983;28;19910;-92
2021/04/17 09:50:01;;;;;;;;;;;13.90;38.80;;;;;;4937388;28;19932;-90
2021/04/17 09:52:27;;;;;;;;;;;14.10;39.30;;;;;;4932939;29;19922;-90
2021/04/17 09:54:55;;;;;;;;;;;14.20;39.70;;;;;;4929088;29;19918;-86
2021/04/17 09:57:21;;;;;;;;;;;14.30;39.50;;;;;;4930257;29;20278;-85
2021/04/17 09:59:50;;;;;;;;;;;14.30;39.10;;;;;;4942333;29;19921;-85
2021/04/17 10:02:17;;;;;;;;;;;14.30;38.80;;;;;;4937624;28;20284;-85
2021/04/17 10:04:50;;;;;;;;;;;14.20;39.20;;;;;;4926914;29;20372;-84
2021/04/17 10:07:16;;;;;;;;;;;14.20;39.40;;;;;;4929560;29;20005;-85
2021/04/17 10:09:42;;;;;;;;;;;14.10;39.50;;;;;;4932164;29;19998;-85
2021/04/17 10:12:08;;;;;;;;;;;14.00;39.70;;;;;;4945702;28;19918;-87
2021/04/17 10:14:34;;;;;;;;;;;14.00;40.00;;;;;;4939757;29;19911;-85
2021/04/17 10:17:00;;;;;;;;;;;13.80;40.50;;;;;;4922367;29;19918;-85
2021/04/17 10:19:28;;;;;;;;;;;13.70;40.70;;;;;;4931275;29;19950;-86
2021/04/17 10:21:55;;;;;;;;;;;13.70;40.90;;;;;;4933861;29;19914;-85
2021/04/17 10:24:24;;;;;;;;;;;13.80;41.20;;;;;;4931209;29;20286;-85
2021/04/17 10:26:51;;;;;;;;;;;13.80;41.20;;;;;;4921598;28;20009;-86
2021/04/17 10:29:17;;;;;;;;;;;13.90;41.00;;;;;;4928543;29;19911;-87
2021/04/17 10:31:43;;;;;;;;;;;13.90;40.60;;;;;;4940003;29;19919;-87
2021/04/17 10:34:08;;;;;;;;;;;13.90;40.70;;;;;;4931400;29;20282;-87
2021/04/17 10:36:34;;;;;;;;;;;13.90;40.70;;;;;;4939537;29;19973;-87
2021/04/17 10:39:07;;;;;;;;;;;13.70;40.70;;;;;;4936427;29;20064;-87
2021/04/17 10:41:33;;;;;;;;;;;13.90;41.10;;;;;;4938922;29;19946;-86
2021/04/17 10:44:14;;;;;;;;;;;14.00;41.00;;;;;;4937936;29;19914;-86
2021/04/17 10:46:44;;;;;;;;;;;14.10;40.60;;;;;;4936754;29;19970;-88
2021/04/17 10:49:10;;;;;;;;;;;14.00;40.40;;;;;;4933619;29;19918;-88
2021/04/17 10:51:38;;;;;;;;;;;13.90;40.50;;;;;;4940931;29;20359;-88
2021/04/17 10:54:04;;;;;;;;;;;13.90;40.60;;;;;;4941418;28;19922;-88
2021/04/17 10:56:31;;;;;;;;;;;13.80;40.70;;;;;;4942130;28;19917;-88
2021/04/17 10:58:59;;;;;;;;;;;13.90;40.80;;;;;;4938091;29;19984;-87
2021/04/17 11:01:26;;;;;;;;;;;13.90;40.40;;;;;;4938207;29;20005;-87
2021/04/17 11:03:53;;;;;;;;;;;13.90;39.70;;;;;;4936878;29;19942;-88
2021/04/17 11:06:18;;;;;;;;;;;14.10;40.10;;;;;;4932011;29;20326;-87
2021/04/17 11:08:44;;;;;;;;;;;14.20;40.20;;;;;;4947055;28;19915;-87
2021/04/17 11:11:11;;;;;;;;;;;14.20;39.90;;;;;;4933080;29;19950;-87
2021/04/17 11:13:41;;;;;;;;;;;14.20;39.60;;;;;;4940748;29;19910;-87
2021/04/17 11:16:07;;;;;;;;;;;14.20;38.20;;;;;;4938844;28;19915;-87
2021/04/17 11:18:33;;;;;;;;;;;14.20;38.40;;;;;;4927842;29;19922;-86
2021/04/17 11:21:00;;;;;;;;;;;14.30;38.70;;;;;;4930037;29;19911;-86
2021/04/17 11:23:48;;;;;;;;;;;14.50;39.20;;;;;;4939198;28;19910;-86
2021/04/17 11:26:18;;;;;;;;;;;14.60;38.90;;;;;;4960843;28;19930;-87
2021/04/17 11:28:45;;;;;;;;;;;14.60;38.50;;;;;;4938695;29;19911;-87
2021/04/17 11:31:14;;;;;;;;;;;14.60;39.30;;;;;;4941916;29;20309;-86
2021/04/17 11:33:40;;;;;;;;;;;14.70;38.50;;;;;;4941448;28;19994;-86
2021/04/17 11:36:05;;;;;;;;;;;14.70;38.90;;;;;;4940670;29;20018;-87
2021/04/17 11:38:31;;;;;;;;;;;14.80;39.10;;;;;;4942673;29;19933;-86
2021/04/17 11:40:56;;;;;;;;;;;14.90;39.00;;;;;;4945680;29;20312;-86
2021/04/17 11:43:22;;;;;;;;;;;14.80;38.70;;;;;;4961300;28;19911;-86
2021/04/17 11:45:49;;;;;;;;;;;14.90;38.90;;;;;;4940560;29;19922;-87
2021/04/17 11:48:14;;;;;;;;;;;14.90;39.00;;;;;;4935873;29;20289;-88
2021/04/17 11:50:40;;;;;;;;;;;14.70;38.90;;;;;;4941120;29;19915;-88
2021/04/17 11:53:06;;;;;;;;;;;14.60;39.30;;;;;;4942350;29;19918;-87
2021/04/17 11:55:31;;;;;;;;;;;14.40;37.80;;;;;;4940586;29;19911;-88
2021/04/17 11:57:57;;;;;;;;;;;14.50;38.10;;;;;;4939011;29;19911;-89
2021/04/17 12:00:23;;;;;;;;;;;14.70;38.10;;;;;;4937255;29;19915;-87
2021/04/17 12:02:48;;;;;;;;;;;14.90;38.50;;;;;;4943340;28;19950;-89
2021/04/17 12:05:14;;;;;;;;;;;14.90;38.70;;;;;;4936193;28;20017;-87
2021/04/17 12:07:39;;;;;;;;;;;15.00;38.80;;;;;;4934926;29;19926;-86
2021/04/17 12:10:05;;;;;;;;;;;15.30;38.60;;;;;;4936049;29;19917;-87
2021/04/17 12:12:31;;;;;;;;;;;15.30;37.80;;;;;;4940276;29;19910;-88
2021/04/17 12:14:56;;;;;;;;;;;15.10;36.70;;;;;;4935608;28;20506;-87
2021/04/17 12:17:21;;;;;;;;;;;15.20;37.60;;;;;;4942193;29;19929;-87
2021/04/17 12:19:47;;;;;;;;;;;15.40;37.80;;;;;;4936857;29;19910;-88
2021/04/17 12:22:12;;;;;;;;;;;15.60;37.80;;;;;;4936200;29;19911;-87
2021/04/17 12:24:38;;;;;;;;;;;15.70;37.50;;;;;;4934958;29;20009;-87
2021/04/17 12:27:04;;;;;;;;;;;15.70;37.40;;;;;;4936531;28;19961;-86
2021/04/17 12:29:29;;;;;;;;;;;15.60;37.60;;;;;;4937793;29;19933;-88
2021/04/17 12:31:55;;;;;;;;;;;15.60;38.00;;;;;;4934703;29;19918;-89
2021/04/17 12:34:20;;;;;;;;;;;15.70;38.10;;;;;;4936851;29;20623;-88
2021/04/17 12:36:47;;;;;;;;;;;15.80;38.10;;;;;;4945130;28;19910;-87
2021/04/17 12:39:12;;;;;;;;;;;15.70;38.00;;;;;;4935979;29;19913;-87
2021/04/17 12:41:37;;;;;;;;;;;15.60;38.50;;;;;;4934071;29;20001;-88
2021/04/17 12:44:03;;;;;;;;;;;15.50;38.30;;;;;;4926209;29;19930;-88
2021/04/17 12:46:29;;;;;;;;;;;15.50;38.00;;;;;;4940419;29;19981;-86
2021/04/17 12:48:54;;;;;;;;;;;15.40;38.00;;;;;;4931686;29;20413;-85
2021/04/17 12:51:20;;;;;;;;;;;15.50;38.20;;;;;;4940797;29;20409;-85
2021/04/17 12:53:45;;;;;;;;;;;15.70;37.40;;;;;;4933801;29;19997;-85
2021/04/17 12:56:11;;;;;;;;;;;15.70;37.00;;;;;;4941146;29;20530;-85
2021/04/17 12:58:40;;;;;;;;;;;15.80;37.50;;;;;;4940850;28;19917;-85
2021/04/17 13:01:06;;;;;;;;;;;16.00;37.50;;;;;;4937035;29;19910;-85
2021/04/17 13:03:31;;;;;;;;;;;15.90;37.40;;;;;;4933437;29;20738;-86
2021/04/17 13:05:57;;;;;;;;;;;15.80;37.80;;;;;;4929500;29;20385;-86
2021/04/17 13:08:24;;;;;;;;;;;15.70;38.10;;;;;;4931253;29;20002;-86
2021/04/17 13:10:50;;;;;;;;;;;15.70;38.20;;;;;;4932422;29;20434;-86
2021/04/17 13:13:16;;;;;;;;;;;15.90;38.30;;;;;;4932715;29;20022;-86
2021/04/17 13:15:45;;;;;;;;;;;16.20;38.20;;;;;;4940083;29;19910;-85
2021/04/17 13:18:10;;;;;;;;;;;16.40;37.80;;;;;;4931114;29;19910;-86
2021/04/17 13:20:35;;;;;;;;;;;16.40;37.60;;;;;;4932866;29;19921;-86
2021/04/17 13:23:01;;;;;;;;;;;16.30;37.00;;;;;;4936355;29;20001;-86
2021/04/17 13:25:26;;;;;;;;;;;16.10;36.30;;;;;;4934033;28;19958;-87
2021/04/17 13:27:52;;;;;;;;;;;15.90;36.80;;;;;;4936238;28;20397;-87
2021/04/17 13:30:18;;;;;;;;;;;15.90;37.10;;;;;;4946592;28;19957;-87
2021/04/17 13:32:43;;;;;;;;;;;16.00;37.20;;;;;;4931570;29;19965;-86
2021/04/17 13:35:09;;;;;;;;;;;16.20;37.20;;;;;;4926876;29;19911;-88
2021/04/17 13:37:35;;;;;;;;;;;16.40;36.90;;;;;;4926340;29;20378;-86
2021/04/17 13:40:00;;;;;;;;;;;16.70;36.70;;;;;;4929631;29;20389;-86
2021/04/17 13:42:26;;;;;;;;;;;16.70;36.50;;;;;;4930847;29;19961;-84
2021/04/17 13:44:51;;;;;;;;;;;16.60;36.90;;;;;;4945248;28;20365;-86
2021/04/17 13:47:17;;;;;;;;;;;16.40;36.10;;;;;;4933077;29;20005;-86
2021/04/17 13:49:43;;;;;;;;;;;16.30;36.40;;;;;;4932057;29;19997;-87
2021/04/17 13:52:08;;;;;;;;;;;16.20;36.30;;;;;;4938435;29;19911;-87
2021/04/17 13:54:34;;;;;;;;;;;16.30;36.70;;;;;;4933024;29;20386;-87
2021/04/17 13:56:59;;;;;;;;;;;16.60;36.40;;;;;;4931186;29;19957;-88
2021/04/17 13:59:26;;;;;;;;;;;16.90;36.10;;;;;;4930873;29;19925;-89
2021/04/17 14:01:52;;;;;;;;;;;17.10;36.10;;;;;;4928973;29;19910;-87
2021/04/17 14:04:19;;;;;;;;;;;17.10;35.50;;;;;;4933889;29;19938;-86
2021/04/17 14:06:45;;;;;;;;;;;16.80;35.80;;;;;;4931454;29;19981;-86
2021/04/17 14:09:10;;;;;;;;;;;16.60;37.00;;;;;;4933280;29;19950;-87
2021/04/17 14:11:36;;;;;;;;;;;16.40;36.80;;;;;;4933558;29;20441;-88
2021/04/17 14:14:01;;;;;;;;;;;16.20;37.20;;;;;;4932720;29;19933;-86
2021/04/17 14:16:28;;;;;;;;;;;16.00;37.60;;;;;;4933928;29;19918;-87
2021/04/17 14:18:53;;;;;;;;;;;16.00;37.80;;;;;;4932993;29;19970;-86